createdAt,value
2018-06-21T00:01:44.510Z,22.50
2018-06-21T00:04:18.325Z,22.50
2018-06-21T00:06:52.085Z,22.50
2018-06-21T00:09:25.781Z,22.40
2018-06-21T00:11:59.584Z,22.40
2018-06-21T00:14:33.368Z,22.30
2018-06-21T00:17:07.095Z,22.40
2018-06-21T00:19:40.868Z,22.40
2018-06-21T00:22:14.569Z,22.40
2018-06-21T00:24:48.358Z,22.40
2018-06-21T00:27:22.249Z,22.40
2018-06-21T00:29:55.969Z,22.40
2018-06-21T00:32:29.769Z,22.40
2018-06-21T00:35:03.365Z,22.40
2018-06-21T00:37:37.246Z,22.40
2018-06-21T00:40:11.836Z,22.40
2018-06-21T00:42:45.464Z,22.40
2018-06-21T00:45:19.306Z,22.40
2018-06-21T00:47:52.916Z,22.50
2018-06-21T00:50:27.499Z,22.50
2018-06-21T00:53:01.255Z,22.50
2018-06-21T00:55:40.981Z,22.40
2018-06-21T00:58:14.774Z,22.30
2018-06-21T01:00:48.596Z,22.30
2018-06-21T01:03:22.480Z,22.20
2018-06-21T01:05:57.104Z,22.10
2018-06-21T01:08:30.656Z,22.10
2018-06-21T01:11:04.315Z,22.10
2018-06-21T01:13:38.937Z,22.10
2018-06-21T01:16:12.708Z,22.00
2018-06-21T01:18:46.449Z,22.00
2018-06-21T01:21:20.196Z,22.00
2018-06-21T01:23:54.767Z,22.10
2018-06-21T01:26:29.177Z,22.10
2018-06-21T01:29:02.952Z,22.10
2018-06-21T01:31:36.592Z,22.10
2018-06-21T01:34:10.263Z,22.00
2018-06-21T01:36:44.032Z,21.90
2018-06-21T01:39:18.619Z,21.90
2018-06-21T01:41:52.408Z,21.80
2018-06-21T01:44:27.026Z,21.90
2018-06-21T01:47:00.696Z,21.90
2018-06-21T01:49:34.510Z,21.80
2018-06-21T01:52:09.079Z,21.80
2018-06-21T01:54:44.439Z,21.70
2018-06-21T01:57:18.208Z,21.80
2018-06-21T01:59:51.971Z,21.70
2018-06-21T02:02:26.541Z,21.70
2018-06-21T02:05:01.000Z,21.70
2018-06-21T02:07:35.530Z,21.60
2018-06-21T02:10:09.328Z,21.70
2018-06-21T02:12:43.929Z,21.70
2018-06-21T02:15:18.467Z,21.70
2018-06-21T02:17:52.170Z,21.80
2018-06-21T02:20:26.572Z,21.70
2018-06-21T02:23:00.445Z,21.70
2018-06-21T02:25:34.208Z,21.60
2018-06-21T02:28:08.144Z,21.60
2018-06-21T02:30:41.999Z,21.60
2018-06-21T02:33:16.520Z,21.50
2018-06-21T02:35:50.246Z,21.50
2018-06-21T02:38:23.884Z,21.50
2018-06-21T02:40:58.359Z,21.60
2018-06-21T02:43:32.139Z,21.50
2018-06-21T02:46:06.801Z,21.60
2018-06-21T02:48:41.405Z,21.60
2018-06-21T02:51:15.166Z,21.50
2018-06-21T02:53:48.956Z,21.60
2018-06-21T02:56:23.513Z,21.70
2018-06-21T02:58:58.064Z,21.60
2018-06-21T03:01:31.820Z,21.60
2018-06-21T03:04:05.681Z,21.60
2018-06-21T03:06:40.232Z,21.50
2018-06-21T03:09:14.058Z,21.40
2018-06-21T03:11:47.685Z,21.40
2018-06-21T03:14:21.460Z,21.40
2018-06-21T03:16:55.146Z,21.20
2018-06-21T03:19:28.956Z,21.00
2018-06-21T03:22:03.502Z,20.90
2018-06-21T03:24:37.192Z,20.90
2018-06-21T03:27:10.944Z,20.90
2018-06-21T03:29:44.705Z,20.80
2018-06-21T03:32:18.452Z,20.90
2018-06-21T03:34:52.224Z,21.00
2018-06-21T03:37:26.081Z,21.00
2018-06-21T03:40:00.427Z,20.90
2018-06-21T03:42:35.047Z,20.90
2018-06-21T03:45:08.825Z,20.90
2018-06-21T03:47:42.548Z,20.90
2018-06-21T03:50:16.208Z,20.90
2018-06-21T03:52:50.775Z,21.00
2018-06-21T03:55:24.816Z,21.00
2018-06-21T03:57:58.707Z,21.00
2018-06-21T04:00:32.380Z,21.00
2018-06-21T04:03:06.082Z,21.00
2018-06-21T04:05:39.801Z,20.90
2018-06-21T04:08:13.529Z,20.90
2018-06-21T04:10:47.984Z,20.80
2018-06-21T04:13:21.718Z,20.80
2018-06-21T04:15:56.427Z,21.00
2018-06-21T04:18:30.132Z,20.90
2018-06-21T04:21:03.885Z,21.00
2018-06-21T04:23:37.598Z,21.00
2018-06-21T04:26:11.377Z,21.00
2018-06-21T04:28:45.308Z,21.10
2018-06-21T04:31:19.116Z,21.10
2018-06-21T04:33:52.877Z,21.00
2018-06-21T04:36:26.454Z,21.10
2018-06-21T04:39:01.009Z,21.20
2018-06-21T04:41:34.871Z,21.20
2018-06-21T04:44:09.441Z,21.30
2018-06-21T04:46:43.240Z,21.20
2018-06-21T04:49:16.965Z,21.30
2018-06-21T04:51:50.708Z,21.50
2018-06-21T04:54:24.355Z,21.80
2018-06-21T04:56:58.028Z,22.00
2018-06-21T04:59:31.769Z,22.10
2018-06-21T05:02:06.331Z,22.20
2018-06-21T05:04:40.848Z,23.10
2018-06-21T05:07:14.539Z,23.10
2018-06-21T05:09:48.327Z,24.10
2018-06-21T05:12:22.080Z,25.00
2018-06-21T05:14:55.674Z,25.00
2018-06-21T05:17:29.516Z,25.00
2018-06-21T05:20:03.387Z,25.30
2018-06-21T05:22:37.948Z,25.80
2018-06-21T05:25:11.717Z,25.80
2018-06-21T05:27:45.488Z,25.60
2018-06-21T05:30:19.288Z,25.20
2018-06-21T05:32:53.012Z,24.80
2018-06-21T05:35:27.546Z,24.10
2018-06-21T05:38:01.929Z,24.00
2018-06-21T05:40:35.693Z,23.90
2018-06-21T05:43:09.472Z,23.90
2018-06-21T05:45:44.082Z,23.50
2018-06-21T05:48:17.931Z,23.50
2018-06-21T05:50:51.825Z,23.60
2018-06-21T05:53:26.344Z,23.80
2018-06-21T05:56:01.153Z,23.80
2018-06-21T05:58:34.825Z,23.80
2018-06-21T06:01:08.563Z,23.90
2018-06-21T06:03:43.178Z,24.20
2018-06-21T06:06:17.803Z,24.20
2018-06-21T06:08:51.757Z,24.30
2018-06-21T06:11:25.691Z,24.30
2018-06-21T06:13:59.467Z,24.30
2018-06-21T06:16:33.273Z,24.40
2018-06-21T06:19:07.166Z,24.40
2018-06-21T06:21:40.932Z,24.60
2018-06-21T06:24:14.736Z,24.70
2018-06-21T06:26:48.464Z,24.80
2018-06-21T06:29:23.003Z,24.90
2018-06-21T06:31:57.409Z,24.80
2018-06-21T06:34:31.175Z,24.80
2018-06-21T06:37:04.911Z,24.70
2018-06-21T06:39:38.793Z,24.80
2018-06-21T06:42:12.632Z,24.90
2018-06-21T06:44:46.547Z,25.00
2018-06-21T06:47:20.463Z,25.10
2018-06-21T06:49:55.033Z,25.20
2018-06-21T06:52:28.617Z,25.20
2018-06-21T06:55:02.313Z,25.30
2018-06-21T06:57:36.060Z,25.40
2018-06-21T07:00:10.486Z,25.70
2018-06-21T07:02:45.015Z,25.80
2018-06-21T07:05:18.644Z,25.80
2018-06-21T07:07:53.228Z,26.00
2018-06-21T07:10:27.770Z,26.10
2018-06-21T07:13:01.381Z,26.10
2018-06-21T07:15:35.905Z,26.20
2018-06-21T07:18:10.303Z,26.30
2018-06-21T07:20:44.835Z,26.20
2018-06-21T07:23:18.654Z,26.20
2018-06-21T07:25:52.264Z,26.20
2018-06-21T07:28:26.156Z,26.20
2018-06-21T07:30:59.876Z,26.30
2018-06-21T07:33:33.781Z,26.40
2018-06-21T07:36:07.625Z,26.60
2018-06-21T07:38:41.455Z,26.70
2018-06-21T07:41:15.284Z,26.90
2018-06-21T07:43:48.869Z,26.90
2018-06-21T07:46:22.594Z,26.80
2018-06-21T07:48:56.405Z,26.80
2018-06-21T07:51:30.223Z,26.80
2018-06-21T07:54:04.857Z,26.90
2018-06-21T07:56:39.352Z,26.90
2018-06-21T07:59:13.916Z,27.00
2018-06-21T08:01:48.424Z,27.00
2018-06-21T08:04:22.243Z,26.90
2018-06-21T08:06:56.832Z,27.70
2018-06-21T08:09:30.621Z,27.60
2018-06-21T08:12:04.351Z,28.20
2018-06-21T08:14:38.968Z,28.90
2018-06-21T08:17:13.465Z,29.30
2018-06-21T08:19:47.270Z,29.30
2018-06-21T08:22:21.898Z,29.40
2018-06-21T08:25:04.236Z,29.40
2018-06-21T08:27:37.889Z,29.60
2018-06-21T08:30:11.817Z,30.20
2018-06-21T08:32:45.621Z,29.80
2018-06-21T08:35:19.398Z,29.40
2018-06-21T08:37:53.119Z,28.80
2018-06-21T08:40:27.793Z,27.80
2018-06-21T08:43:02.327Z,27.60
2018-06-21T08:45:35.936Z,27.60
2018-06-21T08:48:09.760Z,27.70
2018-06-21T08:50:45.086Z,28.40
2018-06-21T08:53:18.906Z,28.40
2018-06-21T08:55:52.511Z,28.90
2018-06-21T08:58:26.441Z,29.40
2018-06-21T09:01:00.856Z,29.80
2018-06-21T09:03:34.502Z,29.80
2018-06-21T09:06:08.906Z,29.10
2018-06-21T09:08:42.676Z,29.10
2018-06-21T09:11:16.518Z,28.90
2018-06-21T09:13:50.352Z,29.10
2018-06-21T09:16:24.204Z,29.70
2018-06-21T09:18:58.086Z,30.40
2018-06-21T09:21:31.966Z,30.50
2018-06-21T09:24:06.401Z,29.30
2018-06-21T09:26:40.124Z,29.30
2018-06-21T09:29:13.968Z,29.80
2018-06-21T09:31:47.675Z,29.90
2018-06-21T09:34:21.578Z,30.80
2018-06-21T09:36:55.361Z,30.90
2018-06-21T09:52:50.486Z,29.90
2018-06-21T09:55:25.003Z,29.60
2018-06-21T09:57:58.810Z,29.50
2018-06-21T10:00:33.452Z,30.00
2018-06-21T10:03:07.170Z,29.90
2018-06-21T10:05:41.043Z,30.30
2018-06-21T10:08:14.818Z,30.40
2018-06-21T10:10:48.612Z,30.30
2018-06-21T10:13:22.418Z,30.80
2018-06-21T10:15:55.998Z,30.70
2018-06-21T10:18:31.235Z,30.60
2018-06-21T10:21:05.064Z,30.60
2018-06-21T10:23:38.951Z,31.00
2018-06-21T10:26:13.437Z,30.70
2018-06-21T10:28:47.192Z,30.70
2018-06-21T10:31:21.093Z,30.20
2018-06-21T10:33:54.765Z,30.40
2018-06-21T10:36:28.597Z,30.80
2018-06-21T10:39:02.508Z,30.90
2018-06-21T10:41:36.249Z,30.80
2018-06-21T10:44:10.073Z,30.20
2018-06-21T10:46:45.242Z,29.80
2018-06-21T10:49:19.084Z,29.80
2018-06-21T10:51:52.872Z,29.20
2018-06-21T10:54:26.643Z,29.10
2018-06-21T10:57:00.472Z,28.70
2018-06-21T10:59:34.099Z,29.30
2018-06-21T11:02:07.878Z,29.50
2018-06-21T11:04:42.481Z,29.40
2018-06-21T11:07:17.476Z,29.40
2018-06-21T11:09:51.111Z,29.80
2018-06-21T11:12:24.900Z,29.50
2018-06-21T11:14:58.588Z,29.00
2018-06-21T11:17:33.073Z,29.20
2018-06-21T11:20:07.650Z,29.40
2018-06-21T11:22:41.465Z,29.40
2018-06-21T11:25:15.230Z,29.50
2018-06-21T11:27:49.022Z,29.90
2018-06-21T11:30:22.744Z,30.40
2018-06-21T11:32:56.481Z,30.00
2018-06-21T11:35:30.308Z,29.80
2018-06-21T11:38:04.141Z,29.70
2018-06-21T11:40:37.948Z,28.90
2018-06-21T11:43:11.677Z,29.10
2018-06-21T11:45:45.468Z,29.40
2018-06-21T11:48:20.208Z,29.60
2018-06-21T11:50:54.669Z,28.90
2018-06-21T11:53:28.376Z,28.80
2018-06-21T11:56:02.123Z,28.70
2018-06-21T11:58:36.630Z,29.00
2018-06-21T12:01:10.417Z,29.00
2018-06-21T12:03:44.136Z,29.30
2018-06-21T12:06:17.949Z,29.40
2018-06-21T12:08:51.557Z,29.30
2018-06-21T12:11:25.355Z,28.90
2018-06-21T12:13:59.926Z,28.20
2018-06-21T12:16:34.054Z,28.20
2018-06-21T12:19:08.517Z,28.20
2018-06-21T12:21:42.240Z,28.10
2018-06-21T12:24:16.063Z,27.90
2018-06-21T12:26:49.858Z,28.20
2018-06-21T12:29:23.582Z,28.40
2018-06-21T12:31:57.599Z,28.60
2018-06-21T12:34:31.388Z,28.60
2018-06-21T12:37:05.173Z,28.60
2018-06-21T12:39:39.886Z,28.90
2018-06-21T12:42:13.731Z,28.90
2018-06-21T12:44:47.540Z,29.00
2018-06-21T12:47:22.018Z,29.10
2018-06-21T12:49:56.600Z,28.90
2018-06-21T12:52:31.037Z,28.90
2018-06-21T12:55:04.752Z,28.90
2018-06-21T12:57:38.536Z,29.00
2018-06-21T13:00:12.248Z,29.00
2018-06-21T13:02:46.891Z,29.00
2018-06-21T13:05:21.555Z,29.00
2018-06-21T13:07:55.218Z,29.00
2018-06-21T13:13:28.025Z,28.40
2018-06-21T13:16:01.817Z,28.40
2018-06-21T13:18:35.604Z,28.40
2018-06-21T13:21:09.435Z,28.50
2018-06-21T13:23:43.140Z,28.80
2018-06-21T13:26:17.632Z,29.20
2018-06-21T13:28:51.272Z,29.10
2018-06-21T13:31:25.092Z,28.60
2018-06-21T13:33:58.933Z,28.40
2018-06-21T13:36:32.789Z,28.00
2018-06-21T13:39:06.579Z,27.60
2018-06-21T13:41:40.521Z,27.80
2018-06-21T13:44:14.188Z,27.90
2018-06-21T13:46:48.730Z,28.20
2018-06-21T13:49:23.278Z,28.30
2018-06-21T13:51:57.656Z,28.50
2018-06-21T13:54:31.585Z,28.50
2018-06-21T13:57:05.193Z,28.50
2018-06-21T13:59:39.075Z,28.60
2018-06-21T14:02:12.963Z,28.50
2018-06-21T14:04:46.791Z,28.10
2018-06-21T14:07:20.649Z,27.60
2018-06-21T14:09:56.776Z,27.60
2018-06-21T14:12:36.176Z,27.60
2018-06-21T14:15:14.147Z,27.30
2018-06-21T14:17:54.780Z,27.20
2018-06-21T14:20:31.312Z,27.00
2018-06-21T14:23:05.518Z,27.00
2018-06-21T14:25:39.476Z,26.40
2018-06-21T14:28:15.170Z,25.80
2018-06-21T14:30:51.370Z,25.80
2018-06-21T14:33:27.647Z,25.60
2018-06-21T14:36:05.461Z,25.50
2018-06-21T14:38:39.325Z,25.50
2018-06-21T14:41:14.281Z,25.60
2018-06-21T14:43:49.296Z,25.30
2018-06-21T14:46:26.058Z,25.30
2018-06-21T14:49:03.013Z,25.40
2018-06-21T14:51:40.841Z,25.40
2018-06-21T14:54:18.752Z,25.30
2018-06-21T14:56:54.835Z,25.30
2018-06-21T14:59:32.382Z,25.30
2018-06-21T15:02:09.850Z,25.10
2018-06-21T15:04:44.627Z,25.00
2018-06-21T15:07:20.549Z,25.10
2018-06-21T15:09:58.039Z,25.20
2018-06-21T15:12:32.348Z,25.30
2018-06-21T15:15:08.255Z,25.50
2018-06-21T15:17:50.931Z,25.50
2018-06-21T15:20:27.620Z,25.40
2018-06-21T15:23:04.436Z,25.40
2018-06-21T15:25:38.410Z,25.30
2018-06-21T15:28:15.237Z,25.30
2018-06-21T15:30:52.364Z,25.60
2018-06-21T15:33:29.262Z,25.60
2018-06-21T15:36:05.083Z,25.60
2018-06-21T15:38:41.543Z,25.40
2018-06-21T15:41:18.148Z,25.50
2018-06-21T15:43:56.934Z,25.80
2018-06-21T15:46:35.996Z,26.00
2018-06-21T15:49:14.037Z,26.20
2018-06-21T15:51:51.278Z,26.20
2018-06-21T15:54:29.797Z,26.10
2018-06-21T15:57:05.742Z,25.80
2018-06-21T15:59:41.513Z,25.80
2018-06-21T16:02:21.961Z,25.30
2018-06-21T16:04:59.682Z,25.30
2018-06-21T16:07:36.245Z,25.30
2018-06-21T16:10:12.089Z,25.10
2018-06-21T16:12:50.915Z,25.10
2018-06-21T16:15:26.569Z,25.00
2018-06-21T16:18:09.609Z,25.00
2018-06-21T16:20:45.296Z,25.10
2018-06-21T16:23:21.187Z,25.20
2018-06-21T16:25:57.642Z,25.00
2018-06-21T16:28:34.811Z,25.10
2018-06-21T16:31:12.330Z,24.60
2018-06-21T16:33:49.244Z,24.60
2018-06-21T16:36:25.543Z,24.60
2018-06-21T16:39:05.108Z,24.60
2018-06-21T16:41:43.038Z,24.60
2018-06-21T16:44:20.383Z,24.60
2018-06-21T16:46:56.254Z,24.40
2018-06-21T16:49:32.111Z,24.10
2018-06-21T16:52:07.050Z,24.10
2018-06-21T16:54:42.442Z,23.90
2018-06-21T16:57:19.240Z,23.90
2018-06-21T16:59:55.520Z,24.00
2018-06-21T17:02:37.832Z,23.90
2018-06-21T17:05:14.404Z,23.80
2018-06-21T17:07:49.249Z,23.90
2018-06-21T17:10:26.252Z,24.00
2018-06-21T17:13:02.189Z,24.00
2018-06-21T17:15:38.625Z,23.80
2018-06-21T17:18:13.486Z,23.70
2018-06-21T17:20:49.112Z,23.60
2018-06-21T17:23:27.315Z,23.60
2018-06-21T17:26:06.166Z,23.40
2018-06-21T17:28:42.429Z,23.20
2018-06-21T17:31:18.362Z,23.20
2018-06-21T17:33:55.330Z,23.10
2018-06-21T17:36:34.534Z,22.90
2018-06-21T17:39:15.034Z,23.00
2018-06-21T17:41:52.407Z,23.10
2018-06-21T17:44:29.801Z,23.20
2018-06-21T17:47:04.437Z,23.30
2018-06-21T17:49:43.127Z,23.30
2018-06-21T17:52:19.817Z,23.40
2018-06-21T17:54:56.622Z,23.50
2018-06-21T17:57:32.788Z,23.20
2018-06-21T18:00:08.952Z,23.10
2018-06-21T18:02:47.443Z,23.00
2018-06-21T18:05:21.899Z,23.10
2018-06-21T18:08:00.129Z,23.10
2018-06-21T18:10:38.072Z,23.10
2018-06-21T18:13:14.116Z,23.00
2018-06-21T18:15:50.110Z,22.70
2018-06-21T18:18:25.311Z,22.50
2018-06-21T18:21:02.030Z,21.80
2018-06-21T18:23:37.776Z,21.80
2018-06-21T18:26:14.815Z,21.90
2018-06-21T18:28:52.484Z,21.70
2018-06-21T18:31:28.848Z,21.60
2018-06-21T18:34:02.924Z,21.60
2018-06-21T18:36:39.996Z,21.50
2018-06-21T18:39:14.910Z,21.40
2018-06-21T18:41:52.233Z,21.50
2018-06-21T18:44:34.502Z,21.60
2018-06-21T18:47:18.022Z,21.60
2018-06-21T18:49:54.723Z,21.30
2018-06-21T18:52:32.747Z,21.10
2018-06-21T18:55:13.722Z,21.10
2018-06-21T18:57:50.285Z,21.10
2018-06-21T19:00:25.376Z,21.30
2018-06-21T19:03:00.325Z,21.50
2018-06-21T19:05:35.499Z,21.50
2018-06-21T19:08:11.789Z,21.60
2018-06-21T19:13:53.795Z,21.50
2018-06-21T19:16:32.437Z,21.30
2018-06-21T19:19:09.174Z,21.10
2018-06-21T19:21:51.392Z,21.00
2018-06-21T19:24:29.065Z,20.90
2018-06-21T19:27:07.195Z,20.80
2018-06-21T19:29:43.556Z,20.80
2018-06-21T19:32:20.950Z,20.80
2018-06-21T19:34:57.500Z,20.80
2018-06-21T19:37:33.490Z,20.90
2018-06-21T19:40:12.314Z,21.00
2018-06-21T19:42:49.373Z,21.00
2018-06-21T19:48:21.038Z,21.10
2018-06-21T19:50:57.750Z,21.10
2018-06-21T19:53:35.584Z,21.10
2018-06-21T19:56:11.562Z,21.00
2018-06-21T19:58:47.830Z,20.90
2018-06-21T20:01:26.143Z,20.90
2018-06-21T20:04:03.334Z,20.80
2018-06-21T20:06:40.329Z,20.60
2018-06-21T20:09:16.054Z,20.60
2018-06-21T20:11:53.242Z,20.40
2018-06-21T20:14:29.346Z,20.40
2018-06-21T20:17:05.978Z,20.40
2018-06-21T20:19:44.714Z,20.30
2018-06-21T20:22:18.900Z,20.20
2018-06-21T20:24:57.268Z,20.00
2018-06-21T20:27:35.726Z,19.90
2018-06-21T20:30:11.635Z,19.90
2018-06-21T20:32:47.931Z,19.60
2018-06-21T20:35:26.828Z,19.70
2018-06-21T20:38:01.812Z,19.60
2018-06-21T20:40:37.864Z,19.50
2018-06-21T20:43:14.542Z,19.10
2018-06-21T20:45:51.522Z,19.10
2018-06-21T20:48:26.405Z,19.10
2018-06-21T20:51:02.269Z,19.10
2018-06-21T20:53:39.198Z,19.20
2018-06-21T20:56:18.621Z,19.00
2018-06-21T20:58:54.783Z,18.90
2018-06-21T21:01:35.667Z,18.80
2018-06-21T21:04:13.098Z,18.70
2018-06-21T21:06:52.466Z,18.90
2018-06-21T21:09:28.314Z,18.80
2018-06-21T21:12:04.799Z,18.50
2018-06-21T21:14:42.602Z,18.50
2018-06-21T21:17:19.274Z,18.30
2018-06-21T21:19:58.704Z,18.00
2018-06-21T21:22:34.534Z,17.90
2018-06-21T21:25:11.254Z,17.90
2018-06-21T21:27:48.378Z,17.90
2018-06-21T21:30:25.352Z,18.00
2018-06-21T21:33:01.663Z,17.80
2018-06-21T21:35:37.216Z,17.60
2018-06-21T21:38:14.605Z,17.50
2018-06-21T21:40:52.046Z,17.50
2018-06-21T21:43:28.050Z,17.50
2018-06-21T21:46:04.820Z,17.50
2018-06-21T21:48:42.391Z,17.70
2018-06-21T21:51:18.138Z,17.80
2018-06-21T21:53:55.251Z,17.90
2018-06-21T21:56:35.481Z,17.80
2018-06-21T21:59:13.386Z,17.70
2018-06-21T22:02:01.221Z,17.40
2018-06-21T22:04:35.868Z,17.40
2018-06-21T22:07:15.817Z,17.30
2018-06-21T22:09:54.230Z,17.10
2018-06-21T22:12:37.285Z,17.00
2018-06-21T22:15:15.872Z,16.70
2018-06-21T22:17:49.966Z,16.80
2018-06-21T22:20:26.042Z,16.60
2018-06-21T22:23:02.203Z,16.60
2018-06-21T22:25:39.485Z,16.30
2018-06-21T22:28:18.615Z,16.40
2018-06-21T22:31:00.508Z,16.30
2018-06-21T22:33:36.416Z,16.40
2018-06-21T22:36:15.439Z,16.30
2018-06-21T22:38:50.808Z,16.30
2018-06-21T22:41:27.900Z,16.10
2018-06-21T22:44:05.611Z,16.00
2018-06-21T22:46:42.285Z,16.30
2018-06-21T22:49:20.279Z,16.30
2018-06-21T22:51:58.689Z,16.30
2018-06-21T22:54:40.493Z,16.20
2018-06-21T22:57:17.676Z,16.10
2018-06-21T22:59:55.679Z,16.00
2018-06-21T23:02:40.759Z,15.90
2018-06-21T23:05:17.264Z,15.90
2018-06-21T23:07:53.789Z,15.90
2018-06-21T23:10:28.274Z,16.10
2018-06-21T23:13:02.061Z,16.10
2018-06-21T23:15:35.878Z,16.10
2018-06-21T23:18:09.678Z,15.80
2018-06-21T23:20:43.421Z,15.70
2018-06-21T23:23:18.242Z,15.80
2018-06-21T23:25:52.670Z,15.60
2018-06-21T23:28:26.350Z,15.60
2018-06-21T23:31:00.957Z,15.30
2018-06-21T23:33:35.471Z,15.40
2018-06-21T23:36:09.189Z,15.40
2018-06-21T23:38:43.617Z,15.30
2018-06-21T23:41:17.474Z,15.30
2018-06-21T23:43:51.351Z,15.30
2018-06-21T23:46:25.118Z,15.30
2018-06-21T23:48:59.552Z,15.10
2018-06-21T23:51:33.274Z,15.10
2018-06-21T23:54:07.073Z,15.10
2018-06-21T23:56:40.748Z,15.20
2018-06-21T23:59:14.575Z,15.10
